sensor_id;sensor_type;location;lat;lon;timestamp;temperature;humidity
22532;DHT22;11432;46.924;7.114;2022-09-29T00:01:07;9.40;99.90
22532;DHT22;11432;46.924;7.114;2022-09-29T00:03:32;9.40;99.90
22532;DHT22;11432;46.924;7.114;2022-09-29T00:05:58;9.40;99.90
22532;DHT22;11432;46.924;7.114;2022-09-29T00:08:26;9.40;99.90
22532;DHT22;11432;46.924;7.114;2022-09-29T00:10:52;9.50;99.90
22532;DHT22;11432;46.924;7.114;2022-09-29T00:13:18;9.50;99.90
22532;DHT22;11432;46.924;7.114;2022-09-29T00:15:44;9.40;99.90
22532;DHT22;11432;46.924;7.114;2022-09-29T00:18:18;9.40;99.90
22532;DHT22;11432;46.924;7.114;2022-09-29T00:20:44;9.40;99.90
22532;DHT22;11432;46.924;7.114;2022-09-29T00:23:09;9.50;99.90
22532;DHT22;11432;46.924;7.114;2022-09-29T00:25:35;9.50;99.90
22532;DHT22;11432;46.924;7.114;2022-09-29T00:28:01;9.40;99.90
22532;DHT22;11432;46.924;7.114;2022-09-29T00:30:27;9.50;99.90
22532;DHT22;11432;46.924;7.114;2022-09-29T00:32:52;9.40;99.90
22532;DHT22;11432;46.924;7.114;2022-09-29T00:35:18;9.40;99.90
22532;DHT22;11432;46.924;7.114;2022-09-29T00:37:44;9.40;99.90
22532;DHT22;11432;46.924;7.114;2022-09-29T00:40:10;9.50;99.90
22532;DHT22;11432;46.924;7.114;2022-09-29T00:42:36;9.50;99.90
22532;DHT22;11432;46.924;7.114;2022-09-29T00:47:44;9.60;99.90
22532;DHT22;11432;46.924;7.114;2022-09-29T00:50:24;9.50;99.90
22532;DHT22;11432;46.924;7.114;2022-09-29T00:52:55;9.60;99.90
22532;DHT22;11432;46.924;7.114;2022-09-29T00:55:25;9.60;99.90
22532;DHT22;11432;46.924;7.114;2022-09-29T00:58:17;9.60;99.90
22532;DHT22;11432;46.924;7.114;2022-09-29T01:00:44;9.60;99.90
22532;DHT22;11432;46.924;7.114;2022-09-29T01:03:13;9.60;99.90
22532;DHT22;11432;46.924;7.114;2022-09-29T01:05:48;9.60;99.90
22532;DHT22;11432;46.924;7.114;2022-09-29T01:08:39;9.50;99.90
22532;DHT22;11432;46.924;7.114;2022-09-29T01:11:05;9.50;99.90
22532;DHT22;11432;46.924;7.114;2022-09-29T01:13:32;9.50;99.90
22532;DHT22;11432;46.924;7.114;2022-09-29T01:15:58;9.50;99.90
22532;DHT22;11432;46.924;7.114;2022-09-29T01:18:24;9.50;99.90
22532;DHT22;11432;46.924;7.114;2022-09-29T01:21:23;9.50;99.90
22532;DHT22;11432;46.924;7.114;2022-09-29T01:27:13;9.40;99.90
22532;DHT22;11432;46.924;7.114;2022-09-29T01:38:13;9.40;99.90
22532;DHT22;11432;46.924;7.114;2022-09-29T01:40:41;9.40;99.90
22532;DHT22;11432;46.924;7.114;2022-09-29T01:43:16;9.40;99.90
22532;DHT22;11432;46.924;7.114;2022-09-29T01:45:55;9.40;99.90
22532;DHT22;11432;46.924;7.114;2022-09-29T01:48:26;9.40;99.90
22532;DHT22;11432;46.924;7.114;2022-09-29T01:50:57;9.40;99.90
22532;DHT22;11432;46.924;7.114;2022-09-29T01:53:32;9.40;99.90
22532;DHT22;11432;46.924;7.114;2022-09-29T01:56:04;9.40;99.90
22532;DHT22;11432;46.924;7.114;2022-09-29T01:58:43;9.40;99.90
22532;DHT22;11432;46.924;7.114;2022-09-29T02:01:11;9.40;99.90
22532;DHT22;11432;46.924;7.114;2022-09-29T02:03:59;9.40;99.90
22532;DHT22;11432;46.924;7.114;2022-09-29T02:06:31;9.40;99.90
22532;DHT22;11432;46.924;7.114;2022-09-29T02:09:02;9.30;99.90
22532;DHT22;11432;46.924;7.114;2022-09-29T02:11:31;9.30;99.90
22532;DHT22;11432;46.924;7.114;2022-09-29T02:14:15;9.30;99.90
22532;DHT22;11432;46.924;7.114;2022-09-29T02:16:50;9.30;99.90
22532;DHT22;11432;46.924;7.114;2022-09-29T02:19:22;9.40;99.90
22532;DHT22;11432;46.924;7.114;2022-09-29T02:21:49;9.40;99.90
22532;DHT22;11432;46.924;7.114;2022-09-29T02:24:19;9.30;99.90
22532;DHT22;11432;46.924;7.114;2022-09-29T02:26:46;9.30;99.90
22532;DHT22;11432;46.924;7.114;2022-09-29T02:29:12;9.30;99.90
22532;DHT22;11432;46.924;7.114;2022-09-29T02:31:38;9.20;99.90
22532;DHT22;11432;46.924;7.114;2022-09-29T02:34:06;9.30;99.90
22532;DHT22;11432;46.924;7.114;2022-09-29T02:42:50;9.30;99.90
22532;DHT22;11432;46.924;7.114;2022-09-29T02:45:40;9.30;99.90
22532;DHT22;11432;46.924;7.114;2022-09-29T02:51:17;9.20;99.90
22532;DHT22;11432;46.924;7.114;2022-09-29T02:56:48;9.20;99.90
22532;DHT22;11432;46.924;7.114;2022-09-29T02:59:23;9.20;99.90
22532;DHT22;11432;46.924;7.114;2022-09-29T03:01:54;9.20;99.90
22532;DHT22;11432;46.924;7.114;2022-09-29T03:04:23;9.10;99.90
22532;DHT22;11432;46.924;7.114;2022-09-29T03:06:49;9.20;99.90
22532;DHT22;11432;46.924;7.114;2022-09-29T03:09:15;9.20;99.90
22532;DHT22;11432;46.924;7.114;2022-09-29T03:11:41;9.20;99.90
22532;DHT22;11432;46.924;7.114;2022-09-29T03:14:07;9.20;99.90
22532;DHT22;11432;46.924;7.114;2022-09-29T03:16:33;9.10;99.90
22532;DHT22;11432;46.924;7.114;2022-09-29T03:18:59;9.10;99.90
22532;DHT22;11432;46.924;7.114;2022-09-29T03:21:25;9.10;99.90
22532;DHT22;11432;46.924;7.114;2022-09-29T03:23:51;9.10;99.90
22532;DHT22;11432;46.924;7.114;2022-09-29T03:26:16;9.10;99.90
22532;DHT22;11432;46.924;7.114;2022-09-29T03:28:42;9.10;99.90
22532;DHT22;11432;46.924;7.114;2022-09-29T03:31:09;9.10;99.90
22532;DHT22;11432;46.924;7.114;2022-09-29T03:33:35;9.10;99.90
22532;DHT22;11432;46.924;7.114;2022-09-29T03:36:03;9.00;99.90
22532;DHT22;11432;46.924;7.114;2022-09-29T03:38:30;9.00;99.90
22532;DHT22;11432;46.924;7.114;2022-09-29T03:40:56;9.00;99.90
22532;DHT22;11432;46.924;7.114;2022-09-29T03:43:22;9.00;99.90
22532;DHT22;11432;46.924;7.114;2022-09-29T03:45:48;9.00;99.90
22532;DHT22;11432;46.924;7.114;2022-09-29T03:48:14;9.00;99.90
22532;DHT22;11432;46.924;7.114;2022-09-29T03:50:40;9.00;99.90
22532;DHT22;11432;46.924;7.114;2022-09-29T03:53:06;9.00;99.90
22532;DHT22;11432;46.924;7.114;2022-09-29T03:55:32;9.00;99.90
22532;DHT22;11432;46.924;7.114;2022-09-29T03:57:57;9.00;99.90
22532;DHT22;11432;46.924;7.114;2022-09-29T04:00:23;9.00;99.90
22532;DHT22;11432;46.924;7.114;2022-09-29T04:02:48;9.00;99.90
22532;DHT22;11432;46.924;7.114;2022-09-29T04:05:14;8.90;99.90
22532;DHT22;11432;46.924;7.114;2022-09-29T04:07:40;9.00;99.90
22532;DHT22;11432;46.924;7.114;2022-09-29T04:10:06;9.00;99.90
22532;DHT22;11432;46.924;7.114;2022-09-29T04:12:32;9.00;99.90
22532;DHT22;11432;46.924;7.114;2022-09-29T04:14:57;9.00;99.90
22532;DHT22;11432;46.924;7.114;2022-09-29T04:17:23;9.00;99.90
22532;DHT22;11432;46.924;7.114;2022-09-29T04:19:48;9.00;99.90
22532;DHT22;11432;46.924;7.114;2022-09-29T04:22:15;9.00;99.90
22532;DHT22;11432;46.924;7.114;2022-09-29T04:24:43;9.00;99.90
22532;DHT22;11432;46.924;7.114;2022-09-29T04:27:08;9.10;99.90
22532;DHT22;11432;46.924;7.114;2022-09-29T04:29:34;9.10;99.90
22532;DHT22;11432;46.924;7.114;2022-09-29T04:32:00;9.10;99.90
22532;DHT22;11432;46.924;7.114;2022-09-29T04:34:25;9.00;99.90
22532;DHT22;11432;46.924;7.114;2022-09-29T04:36:51;9.00;99.90
22532;DHT22;11432;46.924;7.114;2022-09-29T04:39:17;9.00;99.90
22532;DHT22;11432;46.924;7.114;2022-09-29T04:41:43;9.00;99.90
22532;DHT22;11432;46.924;7.114;2022-09-29T04:44:09;9.00;99.90
22532;DHT22;11432;46.924;7.114;2022-09-29T04:46:35;9.10;99.90
22532;DHT22;11432;46.924;7.114;2022-09-29T04:49:00;9.00;99.90
22532;DHT22;11432;46.924;7.114;2022-09-29T04:51:26;9.00;99.90
22532;DHT22;11432;46.924;7.114;2022-09-29T04:53:51;9.00;99.90
22532;DHT22;11432;46.924;7.114;2022-09-29T04:56:18;9.00;99.90
22532;DHT22;11432;46.924;7.114;2022-09-29T04:58:43;9.00;99.90
22532;DHT22;11432;46.924;7.114;2022-09-29T05:01:10;8.90;99.90
22532;DHT22;11432;46.924;7.114;2022-09-29T05:03:39;9.00;99.90
22532;DHT22;11432;46.924;7.114;2022-09-29T05:06:05;9.00;99.90
22532;DHT22;11432;46.924;7.114;2022-09-29T05:08:31;8.90;99.90
22532;DHT22;11432;46.924;7.114;2022-09-29T05:10:57;9.00;99.90
22532;DHT22;11432;46.924;7.114;2022-09-29T05:13:24;9.00;99.90
22532;DHT22;11432;46.924;7.114;2022-09-29T05:15:54;9.00;99.90
22532;DHT22;11432;46.924;7.114;2022-09-29T05:18:19;8.90;99.90
22532;DHT22;11432;46.924;7.114;2022-09-29T05:20:45;9.00;99.90
22532;DHT22;11432;46.924;7.114;2022-09-29T05:23:11;9.00;99.90
22532;DHT22;11432;46.924;7.114;2022-09-29T05:25:37;9.00;99.90
22532;DHT22;11432;46.924;7.114;2022-09-29T05:28:02;8.90;99.90
22532;DHT22;11432;46.924;7.114;2022-09-29T05:30:28;8.90;99.90
22532;DHT22;11432;46.924;7.114;2022-09-29T05:32:54;9.00;99.90
22532;DHT22;11432;46.924;7.114;2022-09-29T05:35:19;9.00;99.90
22532;DHT22;11432;46.924;7.114;2022-09-29T05:37:45;9.00;99.90
22532;DHT22;11432;46.924;7.114;2022-09-29T05:40:10;8.90;99.90
22532;DHT22;11432;46.924;7.114;2022-09-29T05:42:36;8.90;99.90
22532;DHT22;11432;46.924;7.114;2022-09-29T05:45:02;8.90;99.90
22532;DHT22;11432;46.924;7.114;2022-09-29T05:47:27;8.90;99.90
22532;DHT22;11432;46.924;7.114;2022-09-29T05:49:53;8.90;99.90
22532;DHT22;11432;46.924;7.114;2022-09-29T05:52:19;8.90;99.90
22532;DHT22;11432;46.924;7.114;2022-09-29T05:54:44;8.90;99.90
22532;DHT22;11432;46.924;7.114;2022-09-29T05:57:10;8.90;99.90
22532;DHT22;11432;46.924;7.114;2022-09-29T05:59:36;8.90;99.90
22532;DHT22;11432;46.924;7.114;2022-09-29T06:02:01;9.00;99.90
22532;DHT22;11432;46.924;7.114;2022-09-29T06:04:28;9.00;99.90
22532;DHT22;11432;46.924;7.114;2022-09-29T06:06:54;9.00;99.90
22532;DHT22;11432;46.924;7.114;2022-09-29T06:09:20;9.00;99.90
22532;DHT22;11432;46.924;7.114;2022-09-29T06:11:46;9.00;99.90
22532;DHT22;11432;46.924;7.114;2022-09-29T06:14:11;9.00;99.90
22532;DHT22;11432;46.924;7.114;2022-09-29T06:16:37;9.10;99.90
22532;DHT22;11432;46.924;7.114;2022-09-29T06:19:03;9.10;99.90
22532;DHT22;11432;46.924;7.114;2022-09-29T06:21:30;9.10;99.90
22532;DHT22;11432;46.924;7.114;2022-09-29T06:23:56;9.10;99.90
22532;DHT22;11432;46.924;7.114;2022-09-29T06:26:23;9.20;99.90
22532;DHT22;11432;46.924;7.114;2022-09-29T06:28:50;9.10;99.90
22532;DHT22;11432;46.924;7.114;2022-09-29T06:31:17;9.10;99.90
22532;DHT22;11432;46.924;7.114;2022-09-29T06:33:44;9.00;99.90
22532;DHT22;11432;46.924;7.114;2022-09-29T06:36:17;9.00;99.90
22532;DHT22;11432;46.924;7.114;2022-09-29T06:39:08;9.00;99.90
22532;DHT22;11432;46.924;7.114;2022-09-29T06:41:34;9.20;99.90
22532;DHT22;11432;46.924;7.114;2022-09-29T06:44:01;9.50;99.90
22532;DHT22;11432;46.924;7.114;2022-09-29T06:46:26;9.40;99.90
22532;DHT22;11432;46.924;7.114;2022-09-29T06:48:55;9.40;99.90
22532;DHT22;11432;46.924;7.114;2022-09-29T06:51:22;9.20;99.90
22532;DHT22;11432;46.924;7.114;2022-09-29T06:53:49;9.20;99.90
22532;DHT22;11432;46.924;7.114;2022-09-29T06:56:15;9.30;99.90
22532;DHT22;11432;46.924;7.114;2022-09-29T06:58:41;9.30;99.90
22532;DHT22;11432;46.924;7.114;2022-09-29T07:01:07;9.40;99.90
22532;DHT22;11432;46.924;7.114;2022-09-29T07:07:27;9.60;99.90
22532;DHT22;11432;46.924;7.114;2022-09-29T07:09:52;9.40;99.90
22532;DHT22;11432;46.924;7.114;2022-09-29T07:12:18;9.40;99.90
22532;DHT22;11432;46.924;7.114;2022-09-29T07:14:44;9.50;99.90
22532;DHT22;11432;46.924;7.114;2022-09-29T07:17:09;9.50;99.90
22532;DHT22;11432;46.924;7.114;2022-09-29T07:19:37;9.50;99.90
22532;DHT22;11432;46.924;7.114;2022-09-29T07:22:03;9.40;99.90
22532;DHT22;11432;46.924;7.114;2022-09-29T07:24:30;9.40;99.90
22532;DHT22;11432;46.924;7.114;2022-09-29T07:26:55;9.40;99.90
22532;DHT22;11432;46.924;7.114;2022-09-29T07:29:21;9.40;99.90
22532;DHT22;11432;46.924;7.114;2022-09-29T07:31:47;9.40;99.90
22532;DHT22;11432;46.924;7.114;2022-09-29T07:34:16;9.40;99.90
22532;DHT22;11432;46.924;7.114;2022-09-29T07:36:41;9.40;99.90
22532;DHT22;11432;46.924;7.114;2022-09-29T07:39:07;9.30;99.90
22532;DHT22;11432;46.924;7.114;2022-09-29T07:41:32;9.40;99.90
22532;DHT22;11432;46.924;7.114;2022-09-29T07:43:58;9.40;99.90
22532;DHT22;11432;46.924;7.114;2022-09-29T07:46:24;9.50;99.90
22532;DHT22;11432;46.924;7.114;2022-09-29T07:48:49;9.50;99.90
22532;DHT22;11432;46.924;7.114;2022-09-29T07:51:17;9.50;99.90
22532;DHT22;11432;46.924;7.114;2022-09-29T07:53:44;9.60;99.90
22532;DHT22;11432;46.924;7.114;2022-09-29T07:56:15;9.60;99.90
22532;DHT22;11432;46.924;7.114;2022-09-29T07:58:43;9.70;99.90
22532;DHT22;11432;46.924;7.114;2022-09-29T08:01:10;9.70;99.90
22532;DHT22;11432;46.924;7.114;2022-09-29T08:03:42;9.70;99.90
22532;DHT22;11432;46.924;7.114;2022-09-29T08:06:09;9.70;99.90
22532;DHT22;11432;46.924;7.114;2022-09-29T08:08:39;9.70;99.90
22532;DHT22;11432;46.924;7.114;2022-09-29T08:11:09;9.80;99.90
22532;DHT22;11432;46.924;7.114;2022-09-29T08:13:36;9.80;99.90
22532;DHT22;11432;46.924;7.114;2022-09-29T08:16:04;9.80;99.90
22532;DHT22;11432;46.924;7.114;2022-09-29T08:18:31;9.80;99.90
22532;DHT22;11432;46.924;7.114;2022-09-29T08:20:57;9.80;99.90
22532;DHT22;11432;46.924;7.114;2022-09-29T08:23:23;9.80;99.90
22532;DHT22;11432;46.924;7.114;2022-09-29T08:25:49;9.90;99.90
22532;DHT22;11432;46.924;7.114;2022-09-29T08:28:15;9.90;99.90
22532;DHT22;11432;46.924;7.114;2022-09-29T08:30:41;9.90;99.90
22532;DHT22;11432;46.924;7.114;2022-09-29T08:33:06;10.00;99.90
22532;DHT22;11432;46.924;7.114;2022-09-29T08:35:39;10.00;99.90
22532;DHT22;11432;46.924;7.114;2022-09-29T08:38:05;9.90;99.90
22532;DHT22;11432;46.924;7.114;2022-09-29T08:40:30;10.00;99.90
22532;DHT22;11432;46.924;7.114;2022-09-29T08:45:31;9.90;99.90
22532;DHT22;11432;46.924;7.114;2022-09-29T08:48:14;9.90;99.90
22532;DHT22;11432;46.924;7.114;2022-09-29T08:50:57;9.90;99.90
22532;DHT22;11432;46.924;7.114;2022-09-29T08:53:25;10.00;99.90
22532;DHT22;11432;46.924;7.114;2022-09-29T08:56:00;10.10;99.90
22532;DHT22;11432;46.924;7.114;2022-09-29T08:58:27;10.00;99.90
22532;DHT22;11432;46.924;7.114;2022-09-29T09:06:45;10.00;99.90
22532;DHT22;11432;46.924;7.114;2022-09-29T09:12:02;10.20;99.90
22532;DHT22;11432;46.924;7.114;2022-09-29T09:20:33;10.30;99.90
22532;DHT22;11432;46.924;7.114;2022-09-29T09:23:17;10.30;99.90
22532;DHT22;11432;46.924;7.114;2022-09-29T09:26:04;10.30;99.90
22532;DHT22;11432;46.924;7.114;2022-09-29T09:28:39;10.30;99.90
22532;DHT22;11432;46.924;7.114;2022-09-29T09:31:31;10.30;99.90
22532;DHT22;11432;46.924;7.114;2022-09-29T09:36:48;10.20;99.90
22532;DHT22;11432;46.924;7.114;2022-09-29T09:41:56;10.30;99.90
22532;DHT22;11432;46.924;7.114;2022-09-29T09:44:34;10.40;99.90
22532;DHT22;11432;46.924;7.114;2022-09-29T09:50:16;10.60;99.90
22532;DHT22;11432;46.924;7.114;2022-09-29T09:55:18;10.90;99.90
22532;DHT22;11432;46.924;7.114;2022-09-29T09:57:54;11.00;99.90
22532;DHT22;11432;46.924;7.114;2022-09-29T10:00:25;11.10;99.90
22532;DHT22;11432;46.924;7.114;2022-09-29T10:02:54;11.10;99.90
22532;DHT22;11432;46.924;7.114;2022-09-29T10:05:23;11.20;99.90
22532;DHT22;11432;46.924;7.114;2022-09-29T10:07:52;11.10;99.90
22532;DHT22;11432;46.924;7.114;2022-09-29T10:10:25;11.20;99.90
22532;DHT22;11432;46.924;7.114;2022-09-29T10:13:07;11.20;99.90
22532;DHT22;11432;46.924;7.114;2022-09-29T10:18:47;11.30;99.90
22532;DHT22;11432;46.924;7.114;2022-09-29T10:21:20;11.30;99.90
22532;DHT22;11432;46.924;7.114;2022-09-29T10:23:55;11.40;99.90
22532;DHT22;11432;46.924;7.114;2022-09-29T10:26:23;11.40;99.90
22532;DHT22;11432;46.924;7.114;2022-09-29T10:28:59;11.30;99.90
22532;DHT22;11432;46.924;7.114;2022-09-29T10:34:14;11.50;99.90
22532;DHT22;11432;46.924;7.114;2022-09-29T10:36:58;11.60;99.90
22532;DHT22;11432;46.924;7.114;2022-09-29T10:39:42;11.70;99.90
22532;DHT22;11432;46.924;7.114;2022-09-29T10:42:31;11.70;99.90
22532;DHT22;11432;46.924;7.114;2022-09-29T10:45:01;11.60;99.90
22532;DHT22;11432;46.924;7.114;2022-09-29T10:47:27;11.70;99.90
22532;DHT22;11432;46.924;7.114;2022-09-29T10:50:11;11.70;99.90
22532;DHT22;11432;46.924;7.114;2022-09-29T10:52:42;11.70;99.90
22532;DHT22;11432;46.924;7.114;2022-09-29T10:55:17;11.80;99.90
22532;DHT22;11432;46.924;7.114;2022-09-29T10:57:44;11.80;99.90
22532;DHT22;11432;46.924;7.114;2022-09-29T11:00:35;11.90;99.90
22532;DHT22;11432;46.924;7.114;2022-09-29T11:03:15;11.80;99.90
22532;DHT22;11432;46.924;7.114;2022-09-29T11:05:51;11.90;99.90
22532;DHT22;11432;46.924;7.114;2022-09-29T11:08:17;11.80;99.90
22532;DHT22;11432;46.924;7.114;2022-09-29T11:10:46;11.90;99.90
22532;DHT22;11432;46.924;7.114;2022-09-29T11:15:44;12.20;99.90
22532;DHT22;11432;46.924;7.114;2022-09-29T11:18:27;12.30;99.90
22532;DHT22;11432;46.924;7.114;2022-09-29T11:32:06;12.40;99.90
22532;DHT22;11432;46.924;7.114;2022-09-29T11:45:59;11.90;99.90
22532;DHT22;11432;46.924;7.114;2022-09-29T11:51:50;12.50;99.90
22532;DHT22;11432;46.924;7.114;2022-09-29T11:54:38;13.00;99.90
22532;DHT22;11432;46.924;7.114;2022-09-29T12:00:17;13.50;99.90
22532;DHT22;11432;46.924;7.114;2022-09-29T12:14:15;13.40;99.90
22532;DHT22;11432;46.924;7.114;2022-09-29T12:17:03;13.70;99.90
22532;DHT22;11432;46.924;7.114;2022-09-29T12:19:32;13.70;99.90
22532;DHT22;11432;46.924;7.114;2022-09-29T12:22:02;13.50;99.90
22532;DHT22;11432;46.924;7.114;2022-09-29T12:24:37;13.20;99.90
22532;DHT22;11432;46.924;7.114;2022-09-29T12:27:27;13.40;99.90
22532;DHT22;11432;46.924;7.114;2022-09-29T12:29:58;13.70;99.90
22532;DHT22;11432;46.924;7.114;2022-09-29T12:32:38;13.80;99.90
22532;DHT22;11432;46.924;7.114;2022-09-29T12:35:28;13.50;99.90
22532;DHT22;11432;46.924;7.114;2022-09-29T12:43:41;13.00;99.90
22532;DHT22;11432;46.924;7.114;2022-09-29T12:46:18;12.80;11.20
22532;DHT22;11432;46.924;7.114;2022-09-29T12:51:50;12.90;99.90
22532;DHT22;11432;46.924;7.114;2022-09-29T12:57:05;12.80;1.00
22532;DHT22;11432;46.924;7.114;2022-09-29T12:59:51;12.60;9.00
22532;DHT22;11432;46.924;7.114;2022-09-29T13:02:45;12.50;1.00
22532;DHT22;11432;46.924;7.114;2022-09-29T13:13:47;12.60;99.90
22532;DHT22;11432;46.924;7.114;2022-09-29T13:16:33;12.70;1.00
22532;DHT22;11432;46.924;7.114;2022-09-29T13:25:37;12.90;1.00
22532;DHT22;11432;46.924;7.114;2022-09-29T13:28:28;12.90;1.00
22532;DHT22;11432;46.924;7.114;2022-09-29T13:31:00;12.70;1.00
22532;DHT22;11432;46.924;7.114;2022-09-29T13:33:27;12.50;1.00
22532;DHT22;11432;46.924;7.114;2022-09-29T13:35:53;12.50;1.00
22532;DHT22;11432;46.924;7.114;2022-09-29T13:49:14;12.50;1.00
22532;DHT22;11432;46.924;7.114;2022-09-29T13:54:39;12.70;1.00
22532;DHT22;11432;46.924;7.114;2022-09-29T13:59:43;12.70;1.00
22532;DHT22;11432;46.924;7.114;2022-09-29T14:02:35;12.60;1.00
22532;DHT22;11432;46.924;7.114;2022-09-29T14:05:44;12.60;1.00
22532;DHT22;11432;46.924;7.114;2022-09-29T14:10:22;12.60;1.00
22532;DHT22;11432;46.924;7.114;2022-09-29T14:13:15;12.50;1.00
22532;DHT22;11432;46.924;7.114;2022-09-29T14:15:46;12.60;1.00
22532;DHT22;11432;46.924;7.114;2022-09-29T14:18:35;12.50;1.00
22532;DHT22;11432;46.924;7.114;2022-09-29T14:21:05;12.50;1.00
22532;DHT22;11432;46.924;7.114;2022-09-29T14:26:42;12.30;1.00
22532;DHT22;11432;46.924;7.114;2022-09-29T14:29:23;12.30;1.00
22532;DHT22;11432;46.924;7.114;2022-09-29T14:31:55;12.30;1.00
22532;DHT22;11432;46.924;7.114;2022-09-29T14:34:25;12.20;1.00
22532;DHT22;11432;46.924;7.114;2022-09-29T14:36:53;12.20;1.00
22532;DHT22;11432;46.924;7.114;2022-09-29T14:39:21;12.20;1.00
22532;DHT22;11432;46.924;7.114;2022-09-29T14:41:48;12.20;1.00
22532;DHT22;11432;46.924;7.114;2022-09-29T14:44:35;12.30;1.00
22532;DHT22;11432;46.924;7.114;2022-09-29T14:47:38;12.20;99.90
22532;DHT22;11432;46.924;7.114;2022-09-29T14:50:52;12.20;1.00
22532;DHT22;11432;46.924;7.114;2022-09-29T14:59:25;12.00;9.30
22532;DHT22;11432;46.924;7.114;2022-09-29T15:04:45;12.10;99.90
22532;DHT22;11432;46.924;7.114;2022-09-29T15:07:17;12.00;71.50
22532;DHT22;11432;46.924;7.114;2022-09-29T15:09:58;12.00;1.00
22532;DHT22;11432;46.924;7.114;2022-09-29T15:12:26;11.90;68.20
22532;DHT22;11432;46.924;7.114;2022-09-29T15:14:53;11.90;43.90
22532;DHT22;11432;46.924;7.114;2022-09-29T15:25:44;11.90;99.90
22532;DHT22;11432;46.924;7.114;2022-09-29T15:28:18;11.90;99.90
22532;DHT22;11432;46.924;7.114;2022-09-29T15:30:48;11.90;99.60
22532;DHT22;11432;46.924;7.114;2022-09-29T15:35:54;11.90;99.90
22532;DHT22;11432;46.924;7.114;2022-09-29T15:40:57;11.90;99.90
22532;DHT22;11432;46.924;7.114;2022-09-29T15:43:28;11.90;93.80
22532;DHT22;11432;46.924;7.114;2022-09-29T15:45:58;12.00;99.90
22532;DHT22;11432;46.924;7.114;2022-09-29T15:48:28;12.00;99.90
22532;DHT22;11432;46.924;7.114;2022-09-29T15:50:54;12.00;99.90
22532;DHT22;11432;46.924;7.114;2022-09-29T15:53:24;12.00;99.90
22532;DHT22;11432;46.924;7.114;2022-09-29T15:55:52;12.00;99.90
22532;DHT22;11432;46.924;7.114;2022-09-29T16:01:00;12.00;99.90
22532;DHT22;11432;46.924;7.114;2022-09-29T16:03:40;11.90;99.90
22532;DHT22;11432;46.924;7.114;2022-09-29T16:06:17;11.90;99.90
22532;DHT22;11432;46.924;7.114;2022-09-29T16:08:48;11.80;99.90
22532;DHT22;11432;46.924;7.114;2022-09-29T16:11:24;11.80;99.90
22532;DHT22;11432;46.924;7.114;2022-09-29T16:13:59;11.80;99.90
22532;DHT22;11432;46.924;7.114;2022-09-29T16:16:42;11.70;99.90
22532;DHT22;11432;46.924;7.114;2022-09-29T16:21:59;11.70;99.90
22532;DHT22;11432;46.924;7.114;2022-09-29T16:24:29;11.60;99.90
22532;DHT22;11432;46.924;7.114;2022-09-29T16:26:57;11.60;99.90
22532;DHT22;11432;46.924;7.114;2022-09-29T16:29:30;11.70;99.90
22532;DHT22;11432;46.924;7.114;2022-09-29T16:31:57;11.70;99.90
22532;DHT22;11432;46.924;7.114;2022-09-29T16:34:30;11.70;99.90
22532;DHT22;11432;46.924;7.114;2022-09-29T16:36:57;11.60;99.90
22532;DHT22;11432;46.924;7.114;2022-09-29T16:39:33;11.60;99.90
22532;DHT22;11432;46.924;7.114;2022-09-29T16:42:04;11.60;99.90
22532;DHT22;11432;46.924;7.114;2022-09-29T16:44:49;11.60;99.90
22532;DHT22;11432;46.924;7.114;2022-09-29T16:47:19;11.60;99.90
22532;DHT22;11432;46.924;7.114;2022-09-29T16:49:46;11.60;99.90
22532;DHT22;11432;46.924;7.114;2022-09-29T16:52:22;11.60;99.90
22532;DHT22;11432;46.924;7.114;2022-09-29T16:54:51;11.60;99.90
22532;DHT22;11432;46.924;7.114;2022-09-29T16:59:50;11.50;99.90
22532;DHT22;11432;46.924;7.114;2022-09-29T17:02:17;11.40;99.90
22532;DHT22;11432;46.924;7.114;2022-09-29T17:04:42;11.40;99.90
22532;DHT22;11432;46.924;7.114;2022-09-29T17:07:13;11.40;99.90
22532;DHT22;11432;46.924;7.114;2022-09-29T17:09:43;11.40;99.90
22532;DHT22;11432;46.924;7.114;2022-09-29T17:12:12;11.30;99.90
22532;DHT22;11432;46.924;7.114;2022-09-29T17:14:38;11.30;99.90
22532;DHT22;11432;46.924;7.114;2022-09-29T17:17:04;11.20;99.90
22532;DHT22;11432;46.924;7.114;2022-09-29T17:19:30;11.20;99.90
22532;DHT22;11432;46.924;7.114;2022-09-29T17:21:57;11.10;99.90
22532;DHT22;11432;46.924;7.114;2022-09-29T17:24:22;11.00;99.90
22532;DHT22;11432;46.924;7.114;2022-09-29T17:26:48;11.00;99.90
22532;DHT22;11432;46.924;7.114;2022-09-29T17:29:33;10.90;99.90
22532;DHT22;11432;46.924;7.114;2022-09-29T17:32:00;11.00;99.90
22532;DHT22;11432;46.924;7.114;2022-09-29T17:34:27;11.00;99.90
22532;DHT22;11432;46.924;7.114;2022-09-29T17:36:58;10.90;99.90
22532;DHT22;11432;46.924;7.114;2022-09-29T17:39:26;10.80;99.90
22532;DHT22;11432;46.924;7.114;2022-09-29T17:41:52;10.80;99.90
22532;DHT22;11432;46.924;7.114;2022-09-29T17:44:18;10.80;99.90
22532;DHT22;11432;46.924;7.114;2022-09-29T17:46:44;10.80;99.90
22532;DHT22;11432;46.924;7.114;2022-09-29T17:49:13;10.80;99.90
22532;DHT22;11432;46.924;7.114;2022-09-29T17:51:39;10.80;99.90
22532;DHT22;11432;46.924;7.114;2022-09-29T17:54:04;10.80;99.90
22532;DHT22;11432;46.924;7.114;2022-09-29T17:56:37;10.80;99.90
22532;DHT22;11432;46.924;7.114;2022-09-29T17:59:04;10.80;99.90
22532;DHT22;11432;46.924;7.114;2022-09-29T18:01:31;10.70;99.90
22532;DHT22;11432;46.924;7.114;2022-09-29T18:04:01;10.70;99.90
22532;DHT22;11432;46.924;7.114;2022-09-29T18:06:26;10.70;99.90
22532;DHT22;11432;46.924;7.114;2022-09-29T18:08:53;10.90;99.90
22532;DHT22;11432;46.924;7.114;2022-09-29T18:11:24;10.90;99.90
22532;DHT22;11432;46.924;7.114;2022-09-29T18:13:50;10.80;99.90
22532;DHT22;11432;46.924;7.114;2022-09-29T18:16:19;10.70;99.90
22532;DHT22;11432;46.924;7.114;2022-09-29T18:18:45;10.60;99.90
22532;DHT22;11432;46.924;7.114;2022-09-29T18:21:11;10.60;99.90
22532;DHT22;11432;46.924;7.114;2022-09-29T18:23:37;10.60;99.90
22532;DHT22;11432;46.924;7.114;2022-09-29T18:26:04;10.50;99.90
22532;DHT22;11432;46.924;7.114;2022-09-29T18:28:31;10.50;99.90
22532;DHT22;11432;46.924;7.114;2022-09-29T18:31:05;10.60;99.90
22532;DHT22;11432;46.924;7.114;2022-09-29T18:33:32;10.60;99.90
22532;DHT22;11432;46.924;7.114;2022-09-29T18:35:59;10.50;99.90
22532;DHT22;11432;46.924;7.114;2022-09-29T18:38:26;10.60;99.90
22532;DHT22;11432;46.924;7.114;2022-09-29T18:40:52;10.60;99.90
22532;DHT22;11432;46.924;7.114;2022-09-29T18:43:19;10.50;99.90
22532;DHT22;11432;46.924;7.114;2022-09-29T18:45:47;10.50;99.90
22532;DHT22;11432;46.924;7.114;2022-09-29T18:48:14;10.50;99.90
22532;DHT22;11432;46.924;7.114;2022-09-29T18:50:43;10.50;99.90
22532;DHT22;11432;46.924;7.114;2022-09-29T18:53:10;10.50;99.90
22532;DHT22;11432;46.924;7.114;2022-09-29T18:55:35;10.50;99.90
22532;DHT22;11432;46.924;7.114;2022-09-29T18:58:01;10.50;99.90
22532;DHT22;11432;46.924;7.114;2022-09-29T19:00:32;10.50;99.90
22532;DHT22;11432;46.924;7.114;2022-09-29T19:02:58;10.40;99.90
22532;DHT22;11432;46.924;7.114;2022-09-29T19:05:27;10.40;99.90